Time;durP1;ratioP1;P1;durP2;ratioP2;P2;SDS_P1;SDS_P2;PMS_P1;PMS_P2;Temp;Humidity;BMP_temperature;BMP_pressure;BME280_temperature;BME280_humidity;BME280_pressure;Samples;Min_cycle;Max_cycle;Signal;HPM_P1;HPM_P2
2022/10/27 00:01:27;;;;;;;0.77;0.40;;;27.10;99.90;;;;;;4995795;28;20568;-92
2022/10/27 00:04:01;;;;;;;0.93;0.65;;;27.20;99.00;;;;;;4975893;28;20316;-93
2022/10/27 00:06:32;;;;;;;0.20;0.20;;;27.20;98.20;;;;;;4992928;28;20345;-89
2022/10/27 00:09:04;;;;;;;1.13;0.45;;;27.40;97.70;;;;;;5001087;28;20198;-91
2022/10/27 00:11:35;;;;;;;0.30;0.22;;;27.40;96.60;;;;;;4996181;28;20210;-93
2022/10/27 00:14:07;;;;;;;0.55;0.20;;;27.50;96.40;;;;;;4994617;28;20675;-92
2022/10/27 00:16:41;;;;;;;0.70;0.28;;;27.60;96.90;;;;;;4999231;28;20210;-96
2022/10/27 00:19:18;;;;;;;2.00;0.52;;;27.80;96.40;;;;;;4995515;28;20315;-94
2022/10/27 00:21:50;;;;;;;1.60;0.40;;;27.80;93.60;;;;;;5000779;28;20202;-93
2022/10/27 00:24:23;;;;;;;0.85;0.30;;;27.90;91.20;;;;;;4994366;28;20221;-90
2022/10/27 00:26:54;;;;;;;0.65;0.38;;;27.80;92.30;;;;;;4992843;28;20201;-90
2022/10/27 00:29:25;;;;;;;0.75;0.30;;;27.90;91.60;;;;;;4993443;28;20206;-90
2022/10/27 00:31:59;;;;;;;3.25;0.52;;;28.00;90.20;;;;;;4992238;28;20221;-92
2022/10/27 00:34:32;;;;;;;1.73;0.28;;;28.20;87.30;;;;;;4993661;28;20239;-90
2022/10/27 00:37:03;;;;;;;0.82;0.20;;;28.40;86.10;;;;;;5005897;28;20222;-91
2022/10/27 00:39:34;;;;;;;1.13;0.40;;;28.40;86.60;;;;;;5003405;28;20228;-90
2022/10/27 00:42:05;;;;;;;0.95;0.40;;;28.30;84.50;;;;;;4996858;28;20692;-89
2022/10/27 00:44:40;;;;;;;0.25;0.25;;;28.40;79.90;;;;;;4983842;28;20212;-90
2022/10/27 00:47:26;;;;;;;0.20;0.20;;;28.40;77.00;;;;;;4992825;28;20201;-91
2022/10/27 00:50:06;;;;;;;0.63;0.45;;;28.50;75.30;;;;;;5011980;28;20194;-90
2022/10/27 00:52:40;;;;;;;0.15;0.15;;;28.50;77.20;;;;;;5018024;28;20253;-90
2022/10/27 00:55:15;;;;;;;1.85;0.28;;;28.60;76.20;;;;;;4996682;28;20662;-90
2022/10/27 00:58:00;;;;;;;0.40;0.20;;;28.80;72.10;;;;;;4999079;28;20185;-88
2022/10/27 01:00:32;;;;;;;0.65;0.30;;;28.80;69.70;;;;;;4994998;28;20224;-91
2022/10/27 01:03:04;;;;;;;1.40;0.50;;;28.90;66.20;;;;;;4992580;28;20221;-93
2022/10/27 01:05:40;;;;;;;0.80;0.20;;;28.80;66.50;;;;;;4982618;28;20198;-90
2022/10/27 01:08:13;;;;;;;0.73;0.38;;;28.90;67.20;;;;;;4991631;28;20205;-90
2022/10/27 01:10:45;;;;;;;0.95;0.30;;;29.10;69.30;;;;;;4992885;28;20202;-89
2022/10/27 01:13:18;;;;;;;1.10;0.40;;;29.20;68.20;;;;;;4993218;28;20205;-90
2022/10/27 01:15:56;;;;;;;1.10;0.50;;;29.20;64.50;;;;;;4989985;28;20210;-89
2022/10/27 01:18:35;;;;;;;0.93;0.50;;;28.90;65.30;;;;;;4988700;28;20556;-87
2022/10/27 01:21:56;;;;;;;2.05;0.50;;;28.60;64.90;;;;;;4998301;28;20243;-88
2022/10/27 01:24:59;;;;;;;2.95;0.50;;;28.40;65.00;;;;;;4990237;28;20747;-89
2022/10/27 01:27:53;;;;;;;0.43;0.43;;;28.10;66.20;;;;;;4990587;28;20205;-89
2022/10/27 01:30:25;;;;;;;6.82;1.27;;;28.10;66.90;;;;;;4991771;28;20206;-88
2022/10/27 01:33:11;;;;;;;1.58;0.63;;;27.90;67.70;;;;;;4990611;28;20202;-88
2022/10/27 01:35:47;;;;;;;1.20;0.80;;;27.70;67.90;;;;;;4992816;28;20255;-88
2022/10/27 01:38:22;;;;;;;1.25;0.80;;;27.60;68.80;;;;;;4988620;28;21169;-90
2022/10/27 01:41:01;;;;;;;2.78;0.90;;;27.40;70.80;;;;;;4991916;28;20689;-87
2022/10/27 01:43:35;;;;;;;3.67;0.80;;;27.30;74.40;;;;;;4990996;28;21060;-86
2022/10/27 01:46:09;;;;;;;2.20;1.05;;;26.20;99.90;;;;;;4991801;28;20862;-88
2022/10/27 01:48:43;;;;;;;4.78;1.08;;;24.80;99.90;;;;;;4990609;28;20206;-91
2022/10/27 01:51:16;;;;;;;3.38;0.70;;;23.70;99.90;;;;;;5008250;28;20228;-89
2022/10/27 01:53:51;;;;;;;1.85;0.70;;;23.10;99.90;;;;;;5004354;28;20223;-91
2022/10/27 01:56:57;;;;;;;2.60;0.80;;;22.80;99.90;;;;;;4981224;28;20207;-89
2022/10/27 01:59:52;;;;;;;3.03;0.75;;;22.60;99.90;;;;;;4988312;28;20460;-87
2022/10/27 02:02:31;;;;;;;2.38;0.82;;;22.50;99.90;;;;;;4988813;28;20202;-90
2022/10/27 02:05:10;;;;;;;1.38;0.70;;;22.50;99.90;;;;;;4993343;28;20288;-88
2022/10/27 02:08:08;;;;;;;3.40;0.60;;;22.60;99.90;;;;;;4988660;28;20197;-87
2022/10/27 02:10:45;;;;;;;1.50;0.85;;;22.70;99.90;;;;;;4995737;28;20228;-89
2022/10/27 02:13:16;;;;;;;2.65;0.70;;;22.80;99.90;;;;;;4988622;28;20194;-88
2022/10/27 02:15:53;;;;;;;1.35;0.60;;;23.00;99.90;;;;;;4983615;28;20206;-89
2022/10/27 02:18:29;;;;;;;0.70;0.45;;;23.30;99.90;;;;;;4988674;28;20205;-88
2022/10/27 02:21:05;;;;;;;2.25;0.60;;;23.80;99.90;;;;;;4988480;28;20998;-88
2022/10/27 02:23:37;;;;;;;3.20;0.77;;;24.10;99.90;;;;;;4989187;28;20214;-87
2022/10/27 02:26:17;;;;;;;3.65;0.80;;;24.30;99.90;;;;;;4994488;28;20733;-89
2022/10/27 02:28:54;;;;;;;1.02;0.45;;;24.40;99.90;;;;;;4974128;28;20688;-90
2022/10/27 02:31:29;;;;;;;1.35;0.63;;;24.40;99.90;;;;;;4991328;28;20206;-88
2022/10/27 02:34:01;;;;;;;1.90;0.70;;;24.40;99.90;;;;;;4992692;28;20519;-87
2022/10/27 02:36:35;;;;;;;1.02;0.45;;;24.70;99.90;;;;;;4990712;28;20244;-88
2022/10/27 02:39:06;;;;;;;3.50;0.57;;;24.90;99.90;;;;;;4989159;28;20665;-88
2022/10/27 02:41:37;;;;;;;5.07;0.75;;;25.00;99.90;;;;;;4992924;28;20237;-87
2022/10/27 02:44:11;;;;;;;1.63;0.60;;;25.00;99.90;;;;;;5000687;28;20269;-89
2022/10/27 02:46:41;;;;;;;0.60;0.55;;;24.80;99.90;;;;;;4999987;28;20205;-88
2022/10/27 02:49:12;;;;;;;0.82;0.40;;;24.80;99.90;;;;;;4989255;28;20205;-92
2022/10/27 02:51:46;;;;;;;1.80;0.63;;;24.90;99.90;;;;;;4999292;28;20237;-88
2022/10/27 02:54:17;;;;;;;0.70;0.45;;;24.80;99.90;;;;;;5009584;28;20201;-89
2022/10/27 02:56:51;;;;;;;2.28;0.70;;;24.90;99.90;;;;;;4988999;28;20206;-90
2022/10/27 02:59:23;;;;;;;0.57;0.43;;;25.00;99.90;;;;;;4990028;28;20263;-88
2022/10/27 03:01:57;;;;;;;1.30;0.50;;;25.20;99.90;;;;;;5010431;28;21071;-90
2022/10/27 03:04:28;;;;;;;1.48;0.60;;;25.30;99.90;;;;;;4995194;28;20668;-89
2022/10/27 03:07:02;;;;;;;2.72;0.47;;;25.30;99.90;;;;;;4992915;28;20198;-90
2022/10/27 03:09:33;;;;;;;1.13;0.40;;;25.40;99.90;;;;;;4992094;28;20206;-89
2022/10/27 03:12:05;;;;;;;1.60;0.35;;;25.30;99.90;;;;;;4990934;28;20206;-88
2022/10/27 03:14:36;;;;;;;0.52;0.30;;;25.30;99.90;;;;;;4988420;28;20311;-87
2022/10/27 03:17:07;;;;;;;0.40;0.30;;;25.30;99.90;;;;;;4988389;28;20197;-88
2022/10/27 03:19:37;;;;;;;1.50;0.40;;;25.30;99.90;;;;;;4989439;28;20202;-87
2022/10/27 03:22:10;;;;;;;1.23;0.30;;;25.20;99.90;;;;;;4986645;28;20620;-87
2022/10/27 03:24:41;;;;;;;0.47;0.40;;;25.10;99.90;;;;;;4985385;28;20668;-87
2022/10/27 03:27:12;;;;;;;0.73;0.25;;;25.00;99.90;;;;;;4990819;28;20220;-90
2022/10/27 03:29:43;;;;;;;0.88;0.32;;;25.00;99.90;;;;;;4987205;28;20218;-90
2022/10/27 03:32:15;;;;;;;0.73;0.40;;;25.10;99.90;;;;;;4987483;28;20202;-90
2022/10/27 03:34:48;;;;;;;0.40;0.30;;;24.90;99.90;;;;;;4997565;28;20190;-88
2022/10/27 03:37:20;;;;;;;1.83;0.40;;;24.90;99.90;;;;;;5002543;28;20209;-87
2022/10/27 03:39:52;;;;;;;1.45;0.55;;;24.80;99.90;;;;;;4990508;28;20200;-87
2022/10/27 03:42:24;;;;;;;0.22;0.20;;;24.70;99.90;;;;;;4993428;28;20440;-88
2022/10/27 03:44:55;;;;;;;0.65;0.30;;;24.50;99.90;;;;;;4991055;28;20211;-89
2022/10/27 03:47:26;;;;;;;1.33;0.40;;;24.50;99.90;;;;;;4989856;28;20692;-88
2022/10/27 03:49:58;;;;;;;0.60;0.30;;;24.50;99.90;;;;;;4987597;28;20205;-89
2022/10/27 03:52:31;;;;;;;1.02;0.40;;;24.50;99.90;;;;;;4994449;28;20236;-89
2022/10/27 03:55:02;;;;;;;0.77;0.30;;;24.60;99.90;;;;;;5010613;28;20225;-89
2022/10/27 03:57:33;;;;;;;0.52;0.30;;;24.70;99.90;;;;;;4988316;28;20205;-88
2022/10/27 04:00:05;;;;;;;0.85;0.38;;;24.90;99.90;;;;;;4985979;28;21469;-88
2022/10/27 04:02:36;;;;;;;1.35;0.40;;;25.10;99.90;;;;;;4987283;28;20701;-88
2022/10/27 04:05:08;;;;;;;1.73;0.40;;;25.40;99.90;;;;;;4990278;28;20203;-88
2022/10/27 04:07:40;;;;;;;0.47;0.40;;;25.50;99.90;;;;;;4988248;28;20198;-88
2022/10/27 04:10:14;;;;;;;0.30;0.25;;;25.50;99.90;;;;;;4994766;28;20211;-88
2022/10/27 04:12:52;;;;;;;1.25;0.50;;;25.50;99.90;;;;;;4990364;28;20704;-88
2022/10/27 04:15:24;;;;;;;1.20;0.38;;;25.50;99.90;;;;;;4989245;28;20217;-88
2022/10/27 04:17:56;;;;;;;3.00;0.30;;;25.60;99.90;;;;;;4987239;28;20217;-88
2022/10/27 04:20:28;;;;;;;0.60;0.30;;;25.50;99.90;;;;;;4988937;28;20213;-89
2022/10/27 04:23:02;;;;;;;1.55;0.40;;;25.60;99.90;;;;;;4989895;28;20217;-89
2022/10/27 04:25:34;;;;;;;0.55;0.30;;;25.60;99.90;;;;;;4992945;28;20225;-89
2022/10/27 04:28:09;;;;;;;0.35;0.20;;;25.60;99.90;;;;;;4989009;28;20199;-89
2022/10/27 04:30:40;;;;;;;0.90;0.30;;;25.50;99.90;;;;;;4988853;28;20208;-90
2022/10/27 04:33:11;;;;;;;0.30;0.30;;;25.50;99.90;;;;;;4990785;28;20203;-89
2022/10/27 04:35:42;;;;;;;1.92;0.98;;;25.50;99.90;;;;;;4993364;28;20205;-88
2022/10/27 04:38:19;;;;;;;1.80;0.40;;;25.50;99.90;;;;;;4988195;28;20537;-88
2022/10/27 04:40:50;;;;;;;0.38;0.30;;;25.50;99.90;;;;;;5001070;28;20243;-89
2022/10/27 04:43:21;;;;;;;0.47;0.30;;;25.50;99.90;;;;;;4988071;28;20206;-88
2022/10/27 04:45:52;;;;;;;0.63;0.28;;;25.40;99.90;;;;;;4994293;28;20201;-89
2022/10/27 04:48:23;;;;;;;0.70;0.30;;;25.40;99.90;;;;;;4990443;28;20261;-89
2022/10/27 04:50:53;;;;;;;1.75;0.30;;;25.40;99.90;;;;;;4990698;28;20206;-89
2022/10/27 04:53:27;;;;;;;1.08;0.40;;;25.40;99.90;;;;;;4998099;28;20236;-90
2022/10/27 04:55:58;;;;;;;0.38;0.30;;;25.40;99.90;;;;;;5013555;28;20198;-87
2022/10/27 04:58:29;;;;;;;0.22;0.22;;;25.40;99.90;;;;;;4992877;28;20698;-87
2022/10/27 05:01:00;;;;;;;2.78;0.50;;;25.40;99.90;;;;;;4989535;28;20720;-87
2022/10/27 05:03:30;;;;;;;0.73;0.30;;;25.40;99.90;;;;;;4991087;28;20205;-87
2022/10/27 05:06:02;;;;;;;0.30;0.30;;;25.40;99.90;;;;;;4990380;28;20677;-86
2022/10/27 05:08:36;;;;;;;1.27;0.40;;;25.40;99.90;;;;;;4997956;28;20205;-87
2022/10/27 05:11:07;;;;;;;0.40;0.30;;;25.40;99.90;;;;;;4998736;28;20683;-88
2022/10/27 05:13:39;;;;;;;0.98;0.40;;;25.50;99.90;;;;;;4986299;28;20205;-88
2022/10/27 05:16:10;;;;;;;0.30;0.30;;;25.60;99.90;;;;;;4992779;28;20231;-87
2022/10/27 05:18:41;;;;;;;0.73;0.30;;;25.60;99.90;;;;;;4985955;28;20683;-87
2022/10/27 05:21:12;;;;;;;0.43;0.30;;;25.80;99.90;;;;;;4979290;28;20226;-88
2022/10/27 05:23:46;;;;;;;1.58;0.38;;;26.20;99.90;;;;;;4972219;28;20201;-87
2022/10/27 05:26:17;;;;;;;3.40;0.40;;;26.50;99.90;;;;;;5003237;28;20293;-87
2022/10/27 05:28:49;;;;;;;0.70;0.30;;;27.10;99.90;;;;;;4998893;28;20206;-89
2022/10/27 05:31:21;;;;;;;0.50;0.28;;;27.80;99.90;;;;;;4994626;28;20309;-89
2022/10/27 05:33:51;;;;;;;1.25;0.30;;;28.10;99.90;;;;;;4992347;28;20892;-88
2022/10/27 05:36:23;;;;;;;0.85;0.30;;;28.90;99.90;;;;;;4989642;28;20209;-87
2022/10/27 05:39:01;;;;;;;1.33;0.30;;;29.70;99.90;;;;;;4993359;28;20237;-89
2022/10/27 05:41:32;;;;;;;0.77;0.40;;;30.40;99.90;;;;;;4990789;28;20225;-88
2022/10/27 05:44:02;;;;;;;0.35;0.35;;;30.90;96.10;;;;;;4991831;28;20766;-89
2022/10/27 05:46:35;;;;;;;0.80;0.43;;;31.10;92.10;;;;;;4991933;28;21384;-88
2022/10/27 05:49:07;;;;;;;2.08;0.40;;;31.40;86.10;;;;;;4993181;28;20561;-89
2022/10/27 05:51:37;;;;;;;1.35;0.28;;;31.40;83.00;;;;;;4990923;28;20233;-89
2022/10/27 05:54:11;;;;;;;0.80;0.50;;;31.80;80.10;;;;;;4988596;28;20195;-88
2022/10/27 05:56:43;;;;;;;2.55;0.70;;;31.90;67.90;;;;;;5009949;28;20198;-88
2022/10/27 05:59:14;;;;;;;0.50;0.30;;;32.00;70.10;;;;;;4976919;28;20684;-89
2022/10/27 06:01:48;;;;;;;1.15;0.40;;;32.60;68.00;;;;;;4994383;28;21005;-88
2022/10/27 06:04:19;;;;;;;0.60;0.40;;;32.80;64.30;;;;;;4991086;28;20684;-89
2022/10/27 06:06:50;;;;;;;0.55;0.47;;;33.20;60.00;;;;;;4992890;28;20199;-88
2022/10/27 06:09:23;;;;;;;1.13;0.47;;;33.30;57.50;;;;;;4994438;28;20203;-88
2022/10/27 06:11:54;;;;;;;2.30;0.40;;;33.10;54.00;;;;;;4993770;28;22177;-87
2022/10/27 06:14:25;;;;;;;1.75;0.60;;;33.10;53.00;;;;;;4993194;28;20221;-88
2022/10/27 06:16:56;;;;;;;0.93;0.35;;;33.20;51.30;;;;;;4988838;28;20669;-86
2022/10/27 06:19:27;;;;;;;0.68;0.40;;;33.20;50.90;;;;;;4989991;28;20592;-86
2022/10/27 06:21:58;;;;;;;0.60;0.40;;;33.70;49.00;;;;;;4991616;28;20716;-87
2022/10/27 06:24:35;;;;;;;1.15;0.38;;;33.50;45.50;;;;;;4990316;28;20808;-86
2022/10/27 06:27:06;;;;;;;1.98;0.47;;;33.40;44.60;;;;;;4993112;28;20809;-86
2022/10/27 06:29:38;;;;;;;0.88;0.32;;;33.50;44.50;;;;;;4989897;28;21290;-86
2022/10/27 06:32:09;;;;;;;0.65;0.47;;;33.40;42.40;;;;;;4989210;28;20560;-88
2022/10/27 06:34:41;;;;;;;0.95;0.40;;;33.20;42.10;;;;;;4999401;28;20198;-87
2022/10/27 06:37:12;;;;;;;0.70;0.40;;;33.10;43.10;;;;;;4990480;28;22203;-89
2022/10/27 06:39:44;;;;;;;0.77;0.43;;;33.20;42.70;;;;;;4995162;28;20202;-89
2022/10/27 06:42:15;;;;;;;0.40;0.30;;;33.40;40.70;;;;;;4993651;28;20233;-88
2022/10/27 06:44:46;;;;;;;2.28;0.32;;;33.30;40.70;;;;;;4990438;28;20210;-87
2022/10/27 06:47:20;;;;;;;0.55;0.28;;;32.90;41.10;;;;;;4991083;28;20202;-87
2022/10/27 06:49:54;;;;;;;1.02;0.30;;;32.60;42.50;;;;;;4988978;28;20202;-87
2022/10/27 06:52:28;;;;;;;1.55;0.35;;;33.00;42.50;;;;;;4995861;28;20287;-87
2022/10/27 06:55:01;;;;;;;0.30;0.30;;;33.00;41.30;;;;;;5010453;28;20194;-87
2022/10/27 06:57:32;;;;;;;0.30;0.20;;;33.00;40.90;;;;;;5054336;28;20219;-88
2022/10/27 07:00:03;;;;;;;0.52;0.30;;;33.30;40.50;;;;;;5009943;28;20195;-88
2022/10/27 07:02:34;;;;;;;1.70;0.30;;;32.80;40.70;;;;;;4989112;28;20799;-88
2022/10/27 07:05:05;;;;;;;0.95;0.20;;;32.70;41.10;;;;;;4991239;28;20202;-88
2022/10/27 07:07:37;;;;;;;1.77;0.40;;;32.70;41.10;;;;;;4991055;28;20201;-88
2022/10/27 07:10:11;;;;;;;0.55;0.40;;;32.00;42.10;;;;;;4996399;28;20194;-86
2022/10/27 07:12:41;;;;;;;0.98;0.35;;;31.70;42.60;;;;;;4990505;28;20207;-87
2022/10/27 07:15:13;;;;;;;1.83;0.50;;;31.00;43.00;;;;;;4991990;28;20198;-88
2022/10/27 07:17:43;;;;;;;2.13;1.38;;;30.40;44.80;;;;;;5002578;28;20210;-88
2022/10/27 07:20:14;;;;;;;0.77;0.63;;;29.80;46.30;;;;;;4990362;28;20209;-87
2022/10/27 07:22:45;;;;;;;2.40;1.30;;;29.30;48.00;;;;;;4988887;28;20889;-87
2022/10/27 07:25:19;;;;;;;2.00;1.02;;;28.70;51.30;;;;;;4990032;28;20205;-87
2022/10/27 07:27:54;;;;;;;2.92;1.52;;;28.40;53.40;;;;;;4990627;28;20209;-86
2022/10/27 07:30:28;;;;;;;1.65;1.00;;;28.30;55.20;;;;;;4993188;28;20230;-88
2022/10/27 07:33:02;;;;;;;1.25;0.95;;;28.10;57.30;;;;;;5009096;28;20198;-88
2022/10/27 07:35:33;;;;;;;1.40;0.90;;;27.90;58.70;;;;;;5001284;28;20729;-87
2022/10/27 07:38:04;;;;;;;1.58;0.82;;;27.80;60.40;;;;;;4990379;28;20233;-87
2022/10/27 07:40:38;;;;;;;4.03;1.92;;;27.60;62.40;;;;;;5003841;28;20973;-86
2022/10/27 07:43:10;;;;;;;0.88;0.75;;;27.50;64.90;;;;;;5002015;28;20311;-87
2022/10/27 07:45:42;;;;;;;1.58;0.88;;;27.20;66.90;;;;;;4993258;28;20426;-87
2022/10/27 07:48:15;;;;;;;5.35;2.38;;;26.90;68.10;;;;;;4990121;28;20212;-87
2022/10/27 07:50:47;;;;;;;5.53;2.70;;;26.70;69.90;;;;;;4991190;28;20284;-88
2022/10/27 07:53:18;;;;;;;1.38;1.05;;;26.60;70.60;;;;;;4965319;28;20226;-87
2022/10/27 07:55:55;;;;;;;6.43;4.07;;;26.50;71.50;;;;;;4963162;28;20202;-88
2022/10/27 07:58:26;;;;;;;4.07;1.63;;;26.40;73.20;;;;;;4985186;28;20202;-90
2022/10/27 08:00:59;;;;;;;2.63;1.15;;;26.30;75.00;;;;;;4963890;28;20206;-87
2022/10/27 08:03:30;;;;;;;4.22;2.15;;;26.20;76.50;;;;;;4967013;28;20230;-86
2022/10/27 08:06:04;;;;;;;1.50;1.02;;;26.20;77.80;;;;;;4972806;28;20199;-87
2022/10/27 08:08:35;;;;;;;1.35;0.90;;;26.10;79.40;;;;;;4967098;28;20202;-87
2022/10/27 08:11:08;;;;;;;7.40;2.40;;;26.10;77.40;;;;;;4973819;28;20207;-87
2022/10/27 08:13:40;;;;;;;6.05;2.25;;;26.00;77.70;;;;;;4966848;28;20579;-87
2022/10/27 08:16:11;;;;;;;1.83;1.10;;;26.00;81.30;;;;;;4967931;28;20203;-88
2022/10/27 08:18:42;;;;;;;3.85;1.50;;;25.90;79.00;;;;;;4965105;28;20908;-87
2022/10/27 08:21:13;;;;;;;6.82;2.55;;;25.80;79.20;;;;;;4966720;28;20210;-87
2022/10/27 08:23:43;;;;;;;4.88;1.20;;;25.70;81.50;;;;;;4966057;28;20198;-87
2022/10/27 08:26:16;;;;;;;10.85;3.95;;;25.60;84.00;;;;;;4967195;28;20752;-88
2022/10/27 08:28:48;;;;;;;7.32;4.97;;;25.70;79.70;;;;;;4964040;28;20282;-87
2022/10/27 08:31:21;;;;;;;4.35;1.50;;;25.60;77.30;;;;;;4966448;28;20195;-88
2022/10/27 08:33:52;;;;;;;2.70;1.60;;;25.50;77.80;;;;;;4966875;28;20211;-88
2022/10/27 08:36:23;;;;;;;1.13;0.60;;;25.40;78.80;;;;;;4964669;28;20439;-87
2022/10/27 08:38:53;;;;;;;0.95;0.77;;;25.30;73.90;;;;;;4967192;28;21103;-88
2022/10/27 08:41:29;;;;;;;1.23;0.85;;;25.20;73.80;;;;;;4971378;28;20207;-87
2022/10/27 08:44:29;;;;;;;1.10;0.65;;;25.20;71.70;;;;;;4966387;28;20207;-87
2022/10/27 08:47:07;;;;;;;0.85;0.65;;;25.10;69.00;;;;;;4963612;28;20225;-87
2022/10/27 08:49:40;;;;;;;2.10;0.93;;;25.00;68.20;;;;;;4967826;28;20213;-88
2022/10/27 08:52:20;;;;;;;1.00;0.60;;;24.90;68.00;;;;;;4970365;28;20253;-88
2022/10/27 08:54:59;;;;;;;0.90;0.70;;;24.90;68.20;;;;;;4996365;28;20201;-89
2022/10/27 08:57:34;;;;;;;1.33;0.60;;;24.90;67.90;;;;;;4991648;28;20230;-88
2022/10/27 09:00:11;;;;;;;1.35;0.70;;;24.80;66.40;;;;;;5018465;28;20209;-89
2022/10/27 09:03:05;;;;;;;0.52;0.50;;;24.80;68.20;;;;;;4992367;28;20237;-89
2022/10/27 09:05:43;;;;;;;1.15;0.73;;;24.80;66.80;;;;;;4990291;28;20213;-88
2022/10/27 09:08:22;;;;;;;2.15;0.93;;;24.70;65.70;;;;;;4990629;28;20661;-90
2022/10/27 09:11:00;;;;;;;1.65;0.70;;;24.70;64.60;;;;;;4993926;28;20206;-89
2022/10/27 09:13:49;;;;;;;1.27;0.85;;;24.60;64.80;;;;;;4992434;28;20200;-89
2022/10/27 09:16:30;;;;;;;1.48;0.90;;;24.50;63.80;;;;;;4993039;28;20206;-89
2022/10/27 09:19:07;;;;;;;1.40;1.00;;;24.50;64.10;;;;;;4994615;28;20301;-88
2022/10/27 09:21:41;;;;;;;1.08;0.82;;;24.40;64.70;;;;;;4991263;28;20210;-88
2022/10/27 09:24:16;;;;;;;1.80;1.30;;;24.40;65.50;;;;;;4995552;28;20295;-89
2022/10/27 09:26:49;;;;;;;2.35;1.42;;;24.40;65.00;;;;;;5007596;28;20284;-88
2022/10/27 09:29:25;;;;;;;2.15;1.10;;;24.30;65.60;;;;;;5003766;28;21450;-89
2022/10/27 09:32:03;;;;;;;1.45;1.15;;;24.30;65.80;;;;;;4995671;28;20700;-90
2022/10/27 09:34:40;;;;;;;1.35;1.00;;;24.30;66.20;;;;;;4991482;28;20220;-90
2022/10/27 09:37:15;;;;;;;1.40;0.60;;;24.20;66.00;;;;;;4991570;28;20201;-91
2022/10/27 09:39:49;;;;;;;0.73;0.60;;;24.20;65.60;;;;;;4990202;28;20784;-90
2022/10/27 09:42:21;;;;;;;1.48;0.73;;;24.10;66.00;;;;;;4991686;28;20511;-88
2022/10/27 09:45:04;;;;;;;1.45;0.65;;;24.10;66.40;;;;;;4992421;28;20210;-90
2022/10/27 09:47:45;;;;;;;1.50;0.50;;;24.10;69.30;;;;;;4992656;28;20233;-90
2022/10/27 09:50:22;;;;;;;1.08;0.65;;;24.10;67.90;;;;;;4991289;28;20591;-88
2022/10/27 09:52:56;;;;;;;0.70;0.50;;;24.00;68.50;;;;;;4989455;28;20279;-89
2022/10/27 09:55:52;;;;;;;2.15;0.40;;;24.00;71.00;;;;;;4991410;28;20206;-91
2022/10/27 09:58:26;;;;;;;1.63;0.60;;;24.00;73.90;;;;;;4988792;28;20436;-89
2022/10/27 10:01:05;;;;;;;1.17;0.65;;;24.00;71.80;;;;;;5009716;28;20230;-89
2022/10/27 10:03:40;;;;;;;0.38;0.38;;;24.00;72.60;;;;;;4989812;28;20790;-88
2022/10/27 10:06:34;;;;;;;1.67;0.57;;;23.90;75.10;;;;;;4990075;28;20222;-88
2022/10/27 10:09:29;;;;;;;0.73;0.40;;;23.90;74.60;;;;;;4987614;28;20249;-88
2022/10/27 10:12:25;;;;;;;0.98;0.70;;;23.80;76.60;;;;;;4974463;28;20202;-87
2022/10/27 10:15:22;;;;;;;0.45;0.45;;;23.80;75.10;;;;;;4954033;28;20673;-87
2022/10/27 10:18:28;;;;;;;3.28;0.32;;;23.70;78.80;;;;;;4980664;28;20867;-87
2022/10/27 10:21:09;;;;;;;0.98;0.60;;;23.70;79.50;;;;;;4982936;28;20758;-87
2022/10/27 10:23:46;;;;;;;1.63;0.50;;;23.70;80.40;;;;;;4984237;28;20249;-87
2022/10/27 10:26:26;;;;;;;0.77;0.40;;;23.70;81.20;;;;;;4985447;28;20660;-87
2022/10/27 10:29:12;;;;;;;0.68;0.40;;;23.60;83.20;;;;;;4986126;28;20215;-87
2022/10/27 10:31:47;;;;;;;0.50;0.50;;;23.60;85.00;;;;;;4988296;28;20300;-89
2022/10/27 10:34:35;;;;;;;1.08;0.40;;;23.50;85.70;;;;;;4989535;28;20217;-88
2022/10/27 10:37:27;;;;;;;0.40;0.40;;;23.50;87.50;;;;;;4988417;28;20203;-89
2022/10/27 10:40:11;;;;;;;0.65;0.20;;;23.50;87.70;;;;;;4986192;28;20202;-88
2022/10/27 10:42:47;;;;;;;0.30;0.30;;;23.40;89.50;;;;;;4991126;28;20313;-89
2022/10/27 10:45:25;;;;;;;0.30;0.30;;;23.40;90.30;;;;;;4987654;28;20614;-89
2022/10/27 10:48:02;;;;;;;1.42;0.40;;;23.40;90.40;;;;;;4986981;28;20216;-89
2022/10/27 10:50:52;;;;;;;0.32;0.30;;;23.40;91.20;;;;;;4988449;28;20679;-90
2022/10/27 10:53:34;;;;;;;0.68;0.43;;;23.30;91.70;;;;;;4982330;28;20298;-88
2022/10/27 10:56:24;;;;;;;0.70;0.30;;;23.30;91.90;;;;;;4986737;28;20333;-89
2022/10/27 10:59:08;;;;;;;0.50;0.30;;;23.20;93.10;;;;;;4987057;28;20201;-89
2022/10/27 11:01:49;;;;;;;1.30;0.40;;;23.20;94.20;;;;;;4989746;28;20833;-88
2022/10/27 11:04:22;;;;;;;0.57;0.35;;;23.20;93.90;;;;;;5013605;28;20222;-89
2022/10/27 11:07:20;;;;;;;0.20;0.20;;;23.20;93.90;;;;;;4987257;28;20296;-89
2022/10/27 11:09:59;;;;;;;0.55;0.30;;;23.20;94.20;;;;;;4986152;28;20241;-88
2022/10/27 11:12:35;;;;;;;1.88;0.35;;;23.20;94.60;;;;;;4987743;28;20221;-87
2022/10/27 11:15:18;;;;;;;0.40;0.30;;;23.10;95.60;;;;;;4993131;28;20197;-87
2022/10/27 11:17:52;;;;;;;0.30;0.30;;;23.10;97.00;;;;;;5006250;28;20210;-87
2022/10/27 11:20:28;;;;;;;1.00;0.30;;;23.10;98.50;;;;;;4993246;28;20203;-88
2022/10/27 11:23:02;;;;;;;0.85;0.50;;;23.10;99.90;;;;;;4989429;28;20251;-89
2022/10/27 11:25:36;;;;;;;1.27;0.40;;;23.10;99.90;;;;;;4993027;28;20201;-89
2022/10/27 11:28:15;;;;;;;1.20;0.40;;;23.10;99.90;;;;;;4987681;28;20233;-89
2022/10/27 11:30:55;;;;;;;2.13;0.50;;;23.00;99.90;;;;;;4990378;28;21272;-90
2022/10/27 11:33:36;;;;;;;1.23;0.32;;;23.00;99.90;;;;;;4993061;28;20210;-88
2022/10/27 11:36:21;;;;;;;0.43;0.32;;;23.00;99.90;;;;;;4995775;28;20202;-88
2022/10/27 11:39:04;;;;;;;0.68;0.30;;;23.00;99.90;;;;;;5011733;28;20265;-88
2022/10/27 11:41:49;;;;;;;0.30;0.30;;;22.90;99.90;;;;;;5006567;28;20206;-89
2022/10/27 11:44:26;;;;;;;0.65;0.25;;;22.90;99.90;;;;;;4994221;28;20225;-88
2022/10/27 11:47:06;;;;;;;0.35;0.22;;;22.90;99.90;;;;;;4990454;28;20319;-88
2022/10/27 11:49:44;;;;;;;0.32;0.20;;;22.90;99.90;;;;;;4989756;28;20216;-87
2022/10/27 11:52:21;;;;;;;0.30;0.20;;;22.90;99.90;;;;;;4988816;28;20244;-87
2022/10/27 11:54:55;;;;;;;0.15;0.10;;;22.90;99.90;;;;;;4989811;28;22217;-87
2022/10/27 11:57:35;;;;;;;2.38;0.30;;;22.80;99.90;;;;;;4988426;28;20206;-87
2022/10/27 12:00:17;;;;;;;1.25;0.40;;;22.80;99.90;;;;;;4992096;28;20214;-88
2022/10/27 12:03:11;;;;;;;0.85;0.35;;;22.80;99.90;;;;;;4985341;28;20239;-87
2022/10/27 12:05:50;;;;;;;1.77;0.40;;;22.70;99.90;;;;;;5003880;28;21764;-87
2022/10/27 12:08:33;;;;;;;0.50;0.30;;;22.70;99.90;;;;;;5009713;28;20287;-89
2022/10/27 12:11:21;;;;;;;0.22;0.22;;;22.70;99.90;;;;;;4995382;28;20212;-89
2022/10/27 12:13:58;;;;;;;0.80;0.20;;;22.70;99.90;;;;;;4998772;28;20210;-90
2022/10/27 12:16:40;;;;;;;0.68;0.38;;;22.60;99.90;;;;;;4991084;28;21174;-89
2022/10/27 12:19:18;;;;;;;0.47;0.22;;;22.60;99.90;;;;;;4988738;28;20202;-89
2022/10/27 12:21:52;;;;;;;0.40;0.30;;;22.60;99.90;;;;;;4989413;28;20207;-90
2022/10/27 12:24:30;;;;;;;1.35;0.40;;;22.60;99.90;;;;;;4972755;28;20224;-86
2022/10/27 12:27:14;;;;;;;0.57;0.20;;;22.60;99.90;;;;;;4987664;28;20241;-89
2022/10/27 12:29:49;;;;;;;0.93;0.30;;;22.60;99.90;;;;;;4991375;28;20240;-88
2022/10/27 12:32:26;;;;;;;1.05;0.32;;;22.60;99.90;;;;;;4987904;28;20207;-88
2022/10/27 12:35:02;;;;;;;0.45;0.30;;;22.60;99.90;;;;;;4992352;28;20239;-88
2022/10/27 12:37:40;;;;;;;1.45;0.50;;;22.60;99.90;;;;;;4985532;28;20252;-87
2022/10/27 12:40:20;;;;;;;0.70;0.40;;;22.60;99.90;;;;;;5006751;28;20206;-89
2022/10/27 12:43:00;;;;;;;0.30;0.30;;;22.50;99.90;;;;;;5012702;28;20194;-89
2022/10/27 12:45:46;;;;;;;0.30;0.30;;;22.50;99.90;;;;;;4995425;28;20289;-89
2022/10/27 12:48:26;;;;;;;0.65;0.20;;;22.50;99.90;;;;;;4993285;28;20211;-86
2022/10/27 12:51:04;;;;;;;0.30;0.20;;;22.50;99.90;;;;;;4994317;28;20234;-86
2022/10/27 12:53:49;;;;;;;1.85;0.30;;;22.40;99.90;;;;;;4982547;28;20222;-91
2022/10/27 12:56:31;;;;;;;0.30;0.30;;;22.40;99.90;;;;;;4990540;28;20202;-89
2022/10/27 12:59:15;;;;;;;2.08;0.50;;;22.40;99.90;;;;;;4989577;28;20202;-88
2022/10/27 13:01:59;;;;;;;1.73;0.45;;;22.30;99.90;;;;;;4991697;28;20208;-88
2022/10/27 13:04:55;;;;;;;0.95;0.50;;;22.30;99.90;;;;;;4991105;28;20699;-89
2022/10/27 13:08:04;;;;;;;0.77;0.47;;;22.20;99.90;;;;;;4991358;28;20212;-88
2022/10/27 13:11:05;;;;;;;1.85;0.80;;;22.10;99.90;;;;;;5010368;28;20190;-88
2022/10/27 13:13:51;;;;;;;1.42;0.68;;;22.00;99.90;;;;;;4982901;28;20215;-90
2022/10/27 13:16:34;;;;;;;1.08;0.60;;;22.00;99.90;;;;;;4993690;28;20280;-88
2022/10/27 13:19:27;;;;;;;1.65;0.80;;;22.00;99.90;;;;;;4993029;28;20871;-88
2022/10/27 13:22:08;;;;;;;0.75;0.70;;;21.90;99.90;;;;;;4982469;28;20763;-90
2022/10/27 13:24:52;;;;;;;1.38;0.80;;;21.80;99.90;;;;;;4988744;28;20484;-89
2022/10/27 13:27:31;;;;;;;2.47;0.80;;;21.80;99.90;;;;;;4988843;28;20221;-88
2022/10/27 13:30:04;;;;;;;2.28;0.60;;;21.70;99.90;;;;;;4989048;28;20221;-87
2022/10/27 13:32:53;;;;;;;0.60;0.52;;;21.70;99.90;;;;;;4978673;28;20726;-88
2022/10/27 13:35:41;;;;;;;2.25;0.80;;;21.70;99.90;;;;;;4988018;28;20687;-88